Herentals, Belgium
Current Conditions -  °F | °C
As of 7:25 PM on Thursday 23 Oct 2014 (Local Time) from EBDT Reporting Station
Overcast Overcast  
Wind Chill: 54°   Ceiling: 4800
Heat Index: 54°   Visibility: 6mi
Dew Point: 50°   Wind: 8mph
Humidity: 88%   Direction: 190°S
Pressure: 30.18"   Gusts: NA
Location:  51.18°N, 4.83°E
Report Text: EBDT 231725Z AUTO 19007KT 9999 OVC048/// 12/10 Q1022 BLU
Loading
Personal Weather Stations






























Interactive Weather Map
Tropical Storm Tracking
New forecast layout! Learn more

10-Day Weather Forecast

Advertisements
Track Severe Weather on mobile